sensor_id;sensor_type;location;lat;lon;timestamp;P1;durP1;ratioP1;P2;durP2;ratioP2
43676;SDS011;29275;48.800;18.102;2024-02-21T00:01:02;5.35;;;1.90;;
43676;SDS011;29275;48.800;18.102;2024-02-21T00:04:06;6.68;;;1.92;;
43676;SDS011;29275;48.800;18.102;2024-02-21T00:07:09;6.75;;;2.25;;
43676;SDS011;29275;48.800;18.102;2024-02-21T00:10:12;3.75;;;1.45;;
43676;SDS011;29275;48.800;18.102;2024-02-21T00:13:15;5.68;;;1.75;;
43676;SDS011;29275;48.800;18.102;2024-02-21T00:16:18;4.13;;;2.08;;
43676;SDS011;29275;48.800;18.102;2024-02-21T00:19:21;8.00;;;2.05;;
43676;SDS011;29275;48.800;18.102;2024-02-21T00:22:24;5.15;;;2.75;;
43676;SDS011;29275;48.800;18.102;2024-02-21T00:25:30;4.40;;;1.75;;
43676;SDS011;29275;48.800;18.102;2024-02-21T00:28:33;4.80;;;2.22;;
43676;SDS011;29275;48.800;18.102;2024-02-21T00:31:36;6.25;;;2.35;;
43676;SDS011;29275;48.800;18.102;2024-02-21T00:34:39;4.90;;;2.10;;
43676;SDS011;29275;48.800;18.102;2024-02-21T00:37:42;5.40;;;2.13;;
43676;SDS011;29275;48.800;18.102;2024-02-21T00:40:45;5.68;;;2.30;;
43676;SDS011;29275;48.800;18.102;2024-02-21T00:43:48;5.13;;;2.13;;
43676;SDS011;29275;48.800;18.102;2024-02-21T00:46:52;5.88;;;1.92;;
43676;SDS011;29275;48.800;18.102;2024-02-21T00:49:55;4.03;;;1.75;;
43676;SDS011;29275;48.800;18.102;2024-02-21T00:52:58;5.97;;;2.55;;
43676;SDS011;29275;48.800;18.102;2024-02-21T00:56:01;8.07;;;2.58;;
43676;SDS011;29275;48.800;18.102;2024-02-21T00:59:04;7.13;;;2.90;;
43676;SDS011;29275;48.800;18.102;2024-02-21T01:02:07;5.75;;;2.50;;
43676;SDS011;29275;48.800;18.102;2024-02-21T01:05:10;5.55;;;2.67;;
43676;SDS011;29275;48.800;18.102;2024-02-21T01:08:14;9.75;;;2.10;;
43676;SDS011;29275;48.800;18.102;2024-02-21T01:11:17;6.03;;;2.33;;
43676;SDS011;29275;48.800;18.102;2024-02-21T01:14:20;6.10;;;2.33;;
43676;SDS011;29275;48.800;18.102;2024-02-21T01:17:23;5.07;;;2.05;;
43676;SDS011;29275;48.800;18.102;2024-02-21T01:20:26;6.63;;;2.38;;
43676;SDS011;29275;48.800;18.102;2024-02-21T01:23:29;5.25;;;2.10;;
43676;SDS011;29275;48.800;18.102;2024-02-21T01:26:32;5.28;;;1.92;;
43676;SDS011;29275;48.800;18.102;2024-02-21T01:29:35;10.48;;;2.30;;
43676;SDS011;29275;48.800;18.102;2024-02-21T01:32:38;7.63;;;2.45;;
43676;SDS011;29275;48.800;18.102;2024-02-21T01:35:40;9.43;;;3.13;;
43676;SDS011;29275;48.800;18.102;2024-02-21T01:38:44;5.55;;;2.22;;
43676;SDS011;29275;48.800;18.102;2024-02-21T01:41:46;5.07;;;2.47;;
43676;SDS011;29275;48.800;18.102;2024-02-21T01:44:49;4.97;;;1.83;;
43676;SDS011;29275;48.800;18.102;2024-02-21T01:47:52;5.40;;;1.98;;
43676;SDS011;29275;48.800;18.102;2024-02-21T01:50:55;9.45;;;2.20;;
43676;SDS011;29275;48.800;18.102;2024-02-21T01:53:59;8.13;;;2.17;;
43676;SDS011;29275;48.800;18.102;2024-02-21T01:57:02;5.43;;;1.75;;
43676;SDS011;29275;48.800;18.102;2024-02-21T02:00:05;6.97;;;2.33;;
43676;SDS011;29275;48.800;18.102;2024-02-21T02:03:11;7.47;;;2.00;;
43676;SDS011;29275;48.800;18.102;2024-02-21T02:06:21;6.22;;;2.60;;
43676;SDS011;29275;48.800;18.102;2024-02-21T02:09:24;8.63;;;3.30;;
43676;SDS011;29275;48.800;18.102;2024-02-21T02:12:27;9.82;;;3.65;;
43676;SDS011;29275;48.800;18.102;2024-02-21T02:15:39;9.65;;;3.63;;
43676;SDS011;29275;48.800;18.102;2024-02-21T02:18:45;9.93;;;2.78;;
43676;SDS011;29275;48.800;18.102;2024-02-21T02:21:53;6.32;;;2.70;;
43676;SDS011;29275;48.800;18.102;2024-02-21T02:24:59;7.50;;;2.30;;
43676;SDS011;29275;48.800;18.102;2024-02-21T02:28:03;7.13;;;2.50;;
43676;SDS011;29275;48.800;18.102;2024-02-21T02:31:06;6.57;;;2.40;;
43676;SDS011;29275;48.800;18.102;2024-02-21T02:34:09;11.00;;;2.28;;
43676;SDS011;29275;48.800;18.102;2024-02-21T02:37:12;6.95;;;2.35;;
43676;SDS011;29275;48.800;18.102;2024-02-21T02:40:15;7.75;;;2.47;;
43676;SDS011;29275;48.800;18.102;2024-02-21T02:43:18;5.97;;;2.40;;
43676;SDS011;29275;48.800;18.102;2024-02-21T02:46:20;10.80;;;4.75;;
43676;SDS011;29275;48.800;18.102;2024-02-21T02:49:23;13.63;;;5.68;;
43676;SDS011;29275;48.800;18.102;2024-02-21T02:52:26;11.25;;;5.43;;
43676;SDS011;29275;48.800;18.102;2024-02-21T02:55:29;8.88;;;5.35;;
43676;SDS011;29275;48.800;18.102;2024-02-21T02:58:32;11.73;;;6.43;;
43676;SDS011;29275;48.800;18.102;2024-02-21T03:01:35;10.30;;;5.45;;
43676;SDS011;29275;48.800;18.102;2024-02-21T03:04:39;11.70;;;5.68;;
43676;SDS011;29275;48.800;18.102;2024-02-21T03:07:42;7.30;;;3.95;;
43676;SDS011;29275;48.800;18.102;2024-02-21T03:10:46;5.72;;;2.38;;
43676;SDS011;29275;48.800;18.102;2024-02-21T03:13:49;5.93;;;2.50;;
43676;SDS011;29275;48.800;18.102;2024-02-21T03:16:53;4.40;;;2.08;;
43676;SDS011;29275;48.800;18.102;2024-02-21T03:19:56;8.95;;;2.28;;
43676;SDS011;29275;48.800;18.102;2024-02-21T03:22:59;6.03;;;2.83;;
43676;SDS011;29275;48.800;18.102;2024-02-21T03:26:02;6.68;;;2.10;;
43676;SDS011;29275;48.800;18.102;2024-02-21T03:29:06;3.25;;;1.98;;
43676;SDS011;29275;48.800;18.102;2024-02-21T03:32:09;6.15;;;2.08;;
43676;SDS011;29275;48.800;18.102;2024-02-21T03:35:12;4.63;;;1.92;;
43676;SDS011;29275;48.800;18.102;2024-02-21T03:38:15;4.80;;;2.00;;
43676;SDS011;29275;48.800;18.102;2024-02-21T03:41:18;5.88;;;2.25;;
43676;SDS011;29275;48.800;18.102;2024-02-21T03:44:24;5.32;;;2.33;;
43676;SDS011;29275;48.800;18.102;2024-02-21T03:47:27;4.88;;;1.55;;
43676;SDS011;29275;48.800;18.102;2024-02-21T03:50:30;5.45;;;1.52;;
43676;SDS011;29275;48.800;18.102;2024-02-21T03:53:33;5.07;;;1.80;;
43676;SDS011;29275;48.800;18.102;2024-02-21T03:56:38;7.82;;;1.95;;
43676;SDS011;29275;48.800;18.102;2024-02-21T03:59:42;5.73;;;2.33;;
43676;SDS011;29275;48.800;18.102;2024-02-21T04:02:46;6.85;;;2.65;;
43676;SDS011;29275;48.800;18.102;2024-02-21T04:05:48;4.07;;;1.80;;
43676;SDS011;29275;48.800;18.102;2024-02-21T04:08:51;5.63;;;2.17;;
43676;SDS011;29275;48.800;18.102;2024-02-21T04:11:54;5.40;;;2.05;;
43676;SDS011;29275;48.800;18.102;2024-02-21T04:14:57;6.20;;;1.90;;
43676;SDS011;29275;48.800;18.102;2024-02-21T04:18:00;4.03;;;1.23;;
43676;SDS011;29275;48.800;18.102;2024-02-21T04:21:04;6.47;;;1.98;;
43676;SDS011;29275;48.800;18.102;2024-02-21T04:24:07;4.75;;;1.50;;
43676;SDS011;29275;48.800;18.102;2024-02-21T04:27:09;5.05;;;2.08;;
43676;SDS011;29275;48.800;18.102;2024-02-21T04:30:12;4.20;;;1.88;;
43676;SDS011;29275;48.800;18.102;2024-02-21T04:33:15;4.00;;;1.83;;
43676;SDS011;29275;48.800;18.102;2024-02-21T04:36:18;7.00;;;2.28;;
43676;SDS011;29275;48.800;18.102;2024-02-21T04:39:21;3.78;;;1.83;;
43676;SDS011;29275;48.800;18.102;2024-02-21T04:42:24;4.03;;;1.95;;
43676;SDS011;29275;48.800;18.102;2024-02-21T04:45:27;7.75;;;2.05;;
43676;SDS011;29275;48.800;18.102;2024-02-21T04:48:29;3.75;;;1.70;;
43676;SDS011;29275;48.800;18.102;2024-02-21T04:51:32;5.00;;;2.47;;
43676;SDS011;29275;48.800;18.102;2024-02-21T04:54:38;10.68;;;3.83;;
43676;SDS011;29275;48.800;18.102;2024-02-21T04:57:40;9.77;;;5.25;;
43676;SDS011;29275;48.800;18.102;2024-02-21T05:00:43;9.90;;;5.90;;
43676;SDS011;29275;48.800;18.102;2024-02-21T05:03:46;13.02;;;6.68;;
43676;SDS011;29275;48.800;18.102;2024-02-21T05:06:49;14.25;;;6.60;;
43676;SDS011;29275;48.800;18.102;2024-02-21T05:09:52;11.57;;;5.93;;
43676;SDS011;29275;48.800;18.102;2024-02-21T05:12:55;12.35;;;4.68;;
43676;SDS011;29275;48.800;18.102;2024-02-21T05:15:57;8.13;;;4.07;;
43676;SDS011;29275;48.800;18.102;2024-02-21T05:19:03;8.27;;;3.20;;
43676;SDS011;29275;48.800;18.102;2024-02-21T05:22:07;6.65;;;3.55;;
43676;SDS011;29275;48.800;18.102;2024-02-21T05:25:09;7.70;;;2.60;;
43676;SDS011;29275;48.800;18.102;2024-02-21T05:28:12;4.40;;;1.80;;
43676;SDS011;29275;48.800;18.102;2024-02-21T05:31:16;3.80;;;1.85;;
43676;SDS011;29275;48.800;18.102;2024-02-21T05:34:20;6.20;;;2.30;;
43676;SDS011;29275;48.800;18.102;2024-02-21T05:37:23;5.32;;;1.67;;
43676;SDS011;29275;48.800;18.102;2024-02-21T05:40:26;9.57;;;2.80;;
43676;SDS011;29275;48.800;18.102;2024-02-21T05:43:29;5.20;;;1.60;;
43676;SDS011;29275;48.800;18.102;2024-02-21T05:46:32;3.78;;;1.75;;
43676;SDS011;29275;48.800;18.102;2024-02-21T05:49:35;3.80;;;1.77;;
43676;SDS011;29275;48.800;18.102;2024-02-21T05:52:38;4.63;;;1.38;;
43676;SDS011;29275;48.800;18.102;2024-02-21T05:55:42;5.65;;;1.83;;
43676;SDS011;29275;48.800;18.102;2024-02-21T05:58:44;4.07;;;1.38;;
43676;SDS011;29275;48.800;18.102;2024-02-21T06:01:54;5.60;;;2.00;;
43676;SDS011;29275;48.800;18.102;2024-02-21T06:05:00;3.05;;;1.77;;
43676;SDS011;29275;48.800;18.102;2024-02-21T06:08:03;8.10;;;2.13;;
43676;SDS011;29275;48.800;18.102;2024-02-21T06:11:06;4.82;;;1.85;;
43676;SDS011;29275;48.800;18.102;2024-02-21T06:14:09;5.80;;;2.40;;
43676;SDS011;29275;48.800;18.102;2024-02-21T06:17:12;10.55;;;4.75;;
43676;SDS011;29275;48.800;18.102;2024-02-21T06:20:16;12.73;;;5.07;;
43676;SDS011;29275;48.800;18.102;2024-02-21T06:23:19;11.55;;;6.00;;
43676;SDS011;29275;48.800;18.102;2024-02-21T06:26:22;45.78;;;19.35;;
43676;SDS011;29275;48.800;18.102;2024-02-21T06:29:25;36.58;;;15.43;;
43676;SDS011;29275;48.800;18.102;2024-02-21T06:32:28;30.90;;;14.00;;
43676;SDS011;29275;48.800;18.102;2024-02-21T06:35:31;29.25;;;14.55;;
43676;SDS011;29275;48.800;18.102;2024-02-21T06:38:33;22.45;;;12.68;;
43676;SDS011;29275;48.800;18.102;2024-02-21T06:41:37;25.02;;;13.32;;
43676;SDS011;29275;48.800;18.102;2024-02-21T06:44:40;20.23;;;11.65;;
43676;SDS011;29275;48.800;18.102;2024-02-21T06:47:43;24.52;;;12.20;;
43676;SDS011;29275;48.800;18.102;2024-02-21T06:50:46;22.02;;;12.80;;
43676;SDS011;29275;48.800;18.102;2024-02-21T06:53:49;22.98;;;12.13;;
43676;SDS011;29275;48.800;18.102;2024-02-21T06:56:51;28.00;;;15.43;;
43676;SDS011;29275;48.800;18.102;2024-02-21T06:59:55;26.38;;;14.85;;
43676;SDS011;29275;48.800;18.102;2024-02-21T07:02:57;24.00;;;13.13;;
43676;SDS011;29275;48.800;18.102;2024-02-21T07:06:00;19.48;;;10.77;;
43676;SDS011;29275;48.800;18.102;2024-02-21T07:09:03;17.17;;;9.77;;
43676;SDS011;29275;48.800;18.102;2024-02-21T07:12:06;21.42;;;9.48;;
43676;SDS011;29275;48.800;18.102;2024-02-21T07:15:09;14.65;;;7.45;;
43676;SDS011;29275;48.800;18.102;2024-02-21T07:18:12;12.73;;;6.53;;
43676;SDS011;29275;48.800;18.102;2024-02-21T07:21:15;11.70;;;6.20;;
43676;SDS011;29275;48.800;18.102;2024-02-21T07:24:18;8.88;;;4.70;;
43676;SDS011;29275;48.800;18.102;2024-02-21T07:27:21;9.77;;;5.00;;
43676;SDS011;29275;48.800;18.102;2024-02-21T07:30:24;12.10;;;6.45;;
43676;SDS011;29275;48.800;18.102;2024-02-21T07:33:26;11.32;;;6.70;;
43676;SDS011;29275;48.800;18.102;2024-02-21T07:36:30;9.57;;;5.47;;
43676;SDS011;29275;48.800;18.102;2024-02-21T07:39:35;26.02;;;11.02;;
43676;SDS011;29275;48.800;18.102;2024-02-21T07:42:40;13.60;;;8.75;;
43676;SDS011;29275;48.800;18.102;2024-02-21T07:45:43;14.07;;;7.90;;
43676;SDS011;29275;48.800;18.102;2024-02-21T07:48:46;13.73;;;8.20;;
43676;SDS011;29275;48.800;18.102;2024-02-21T07:51:49;19.20;;;10.68;;
43676;SDS011;29275;48.800;18.102;2024-02-21T07:54:52;18.55;;;9.98;;
43676;SDS011;29275;48.800;18.102;2024-02-21T07:57:55;29.90;;;17.50;;
43676;SDS011;29275;48.800;18.102;2024-02-21T08:00:58;33.25;;;18.38;;
43676;SDS011;29275;48.800;18.102;2024-02-21T08:04:02;26.10;;;15.65;;
43676;SDS011;29275;48.800;18.102;2024-02-21T08:07:07;30.40;;;16.27;;
43676;SDS011;29275;48.800;18.102;2024-02-21T08:10:10;22.73;;;12.27;;
43676;SDS011;29275;48.800;18.102;2024-02-21T08:13:13;22.05;;;11.52;;
43676;SDS011;29275;48.800;18.102;2024-02-21T08:16:16;24.55;;;13.27;;
43676;SDS011;29275;48.800;18.102;2024-02-21T08:19:20;14.23;;;7.40;;
43676;SDS011;29275;48.800;18.102;2024-02-21T08:22:23;14.05;;;7.15;;
43676;SDS011;29275;48.800;18.102;2024-02-21T08:25:28;13.35;;;6.82;;
43676;SDS011;29275;48.800;18.102;2024-02-21T08:28:31;10.82;;;4.97;;
43676;SDS011;29275;48.800;18.102;2024-02-21T08:31:34;16.30;;;7.45;;
43676;SDS011;29275;48.800;18.102;2024-02-21T08:34:37;15.07;;;7.80;;
43676;SDS011;29275;48.800;18.102;2024-02-21T08:37:40;11.73;;;6.63;;
43676;SDS011;29275;48.800;18.102;2024-02-21T08:40:45;10.20;;;5.00;;
43676;SDS011;29275;48.800;18.102;2024-02-21T08:43:47;10.80;;;5.28;;
43676;SDS011;29275;48.800;18.102;2024-02-21T08:46:50;17.55;;;8.02;;
43676;SDS011;29275;48.800;18.102;2024-02-21T08:49:53;14.55;;;6.63;;
43676;SDS011;29275;48.800;18.102;2024-02-21T08:52:57;18.73;;;8.23;;
43676;SDS011;29275;48.800;18.102;2024-02-21T08:56:01;17.55;;;8.68;;
43676;SDS011;29275;48.800;18.102;2024-02-21T08:59:04;15.00;;;8.57;;
43676;SDS011;29275;48.800;18.102;2024-02-21T09:02:07;12.43;;;6.75;;
43676;SDS011;29275;48.800;18.102;2024-02-21T09:05:11;9.98;;;6.15;;
43676;SDS011;29275;48.800;18.102;2024-02-21T09:08:14;12.75;;;6.03;;
43676;SDS011;29275;48.800;18.102;2024-02-21T09:11:17;8.55;;;4.60;;
43676;SDS011;29275;48.800;18.102;2024-02-21T09:14:20;6.80;;;3.60;;
43676;SDS011;29275;48.800;18.102;2024-02-21T09:17:23;8.55;;;4.18;;
43676;SDS011;29275;48.800;18.102;2024-02-21T09:20:27;9.32;;;4.00;;
43676;SDS011;29275;48.800;18.102;2024-02-21T09:23:31;6.60;;;3.50;;
43676;SDS011;29275;48.800;18.102;2024-02-21T09:26:34;9.95;;;4.25;;
43676;SDS011;29275;48.800;18.102;2024-02-21T09:29:37;9.65;;;3.97;;
43676;SDS011;29275;48.800;18.102;2024-02-21T09:32:42;10.68;;;4.50;;
43676;SDS011;29275;48.800;18.102;2024-02-21T09:35:45;11.90;;;4.22;;
43676;SDS011;29275;48.800;18.102;2024-02-21T09:38:48;8.40;;;3.70;;
43676;SDS011;29275;48.800;18.102;2024-02-21T09:41:53;6.28;;;3.35;;
43676;SDS011;29275;48.800;18.102;2024-02-21T09:45:01;6.55;;;3.53;;
43676;SDS011;29275;48.800;18.102;2024-02-21T09:51:32;10.75;;;4.07;;
43676;SDS011;29275;48.800;18.102;2024-02-21T09:54:35;13.60;;;5.28;;
43676;SDS011;29275;48.800;18.102;2024-02-21T09:57:38;8.05;;;3.97;;
43676;SDS011;29275;48.800;18.102;2024-02-21T10:00:42;8.43;;;4.43;;
43676;SDS011;29275;48.800;18.102;2024-02-21T10:03:44;7.25;;;4.13;;
43676;SDS011;29275;48.800;18.102;2024-02-21T10:06:47;8.27;;;4.82;;
43676;SDS011;29275;48.800;18.102;2024-02-21T10:09:59;12.27;;;5.25;;
43676;SDS011;29275;48.800;18.102;2024-02-21T10:13:03;8.50;;;4.50;;
43676;SDS011;29275;48.800;18.102;2024-02-21T10:16:06;7.20;;;4.13;;
43676;SDS011;29275;48.800;18.102;2024-02-21T10:19:19;8.00;;;4.53;;
43676;SDS011;29275;48.800;18.102;2024-02-21T10:22:22;12.18;;;4.85;;
43676;SDS011;29275;48.800;18.102;2024-02-21T10:25:28;9.05;;;4.70;;
43676;SDS011;29275;48.800;18.102;2024-02-21T10:28:31;6.95;;;4.28;;
43676;SDS011;29275;48.800;18.102;2024-02-21T10:31:33;11.30;;;5.63;;
43676;SDS011;29275;48.800;18.102;2024-02-21T10:34:37;9.30;;;4.55;;
43676;SDS011;29275;48.800;18.102;2024-02-21T10:37:42;10.30;;;5.75;;
43676;SDS011;29275;48.800;18.102;2024-02-21T10:40:46;8.90;;;6.10;;
43676;SDS011;29275;48.800;18.102;2024-02-21T10:43:51;12.07;;;5.55;;
43676;SDS011;29275;48.800;18.102;2024-02-21T10:46:56;12.38;;;5.45;;
43676;SDS011;29275;48.800;18.102;2024-02-21T10:50:03;10.10;;;5.17;;
43676;SDS011;29275;48.800;18.102;2024-02-21T10:56:32;13.40;;;5.80;;
43676;SDS011;29275;48.800;18.102;2024-02-21T10:59:39;8.93;;;5.15;;
43676;SDS011;29275;48.800;18.102;2024-02-21T11:02:43;14.10;;;6.00;;
43676;SDS011;29275;48.800;18.102;2024-02-21T11:05:46;10.85;;;5.50;;
43676;SDS011;29275;48.800;18.102;2024-02-21T11:09:06;8.55;;;5.38;;
43676;SDS011;29275;48.800;18.102;2024-02-21T11:12:10;13.80;;;7.22;;
43676;SDS011;29275;48.800;18.102;2024-02-21T11:15:14;10.00;;;5.60;;
43676;SDS011;29275;48.800;18.102;2024-02-21T11:18:23;10.18;;;5.95;;
43676;SDS011;29275;48.800;18.102;2024-02-21T11:21:32;13.95;;;7.18;;
43676;SDS011;29275;48.800;18.102;2024-02-21T11:24:38;12.80;;;6.50;;
43676;SDS011;29275;48.800;18.102;2024-02-21T11:27:50;12.63;;;5.90;;
43676;SDS011;29275;48.800;18.102;2024-02-21T11:31:08;12.73;;;6.47;;
43676;SDS011;29275;48.800;18.102;2024-02-21T11:34:13;14.75;;;6.75;;
43676;SDS011;29275;48.800;18.102;2024-02-21T11:37:19;16.57;;;6.40;;
43676;SDS011;29275;48.800;18.102;2024-02-21T11:40:22;11.05;;;6.20;;
43676;SDS011;29275;48.800;18.102;2024-02-21T11:43:25;13.57;;;6.10;;
43676;SDS011;29275;48.800;18.102;2024-02-21T11:46:28;13.95;;;5.85;;
43676;SDS011;29275;48.800;18.102;2024-02-21T11:49:31;10.73;;;6.13;;
43676;SDS011;29275;48.800;18.102;2024-02-21T11:52:38;10.38;;;5.28;;
43676;SDS011;29275;48.800;18.102;2024-02-21T11:55:41;9.00;;;5.20;;
43676;SDS011;29275;48.800;18.102;2024-02-21T11:58:45;12.13;;;5.35;;
43676;SDS011;29275;48.800;18.102;2024-02-21T12:01:52;11.45;;;5.47;;
43676;SDS011;29275;48.800;18.102;2024-02-21T12:04:55;11.40;;;5.20;;
43676;SDS011;29275;48.800;18.102;2024-02-21T12:07:59;10.32;;;4.50;;
43676;SDS011;29275;48.800;18.102;2024-02-21T12:11:21;12.65;;;5.00;;
43676;SDS011;29275;48.800;18.102;2024-02-21T12:14:25;11.52;;;5.53;;
43676;SDS011;29275;48.800;18.102;2024-02-21T12:17:28;12.65;;;4.97;;
43676;SDS011;29275;48.800;18.102;2024-02-21T12:20:32;9.43;;;4.60;;
43676;SDS011;29275;48.800;18.102;2024-02-21T12:23:38;10.45;;;4.45;;
43676;SDS011;29275;48.800;18.102;2024-02-21T12:26:42;10.43;;;4.72;;
43676;SDS011;29275;48.800;18.102;2024-02-21T12:29:45;10.98;;;4.50;;
43676;SDS011;29275;48.800;18.102;2024-02-21T12:32:47;11.18;;;4.97;;
43676;SDS011;29275;48.800;18.102;2024-02-21T12:35:51;10.77;;;4.65;;
43676;SDS011;29275;48.800;18.102;2024-02-21T12:38:54;10.43;;;4.68;;
43676;SDS011;29275;48.800;18.102;2024-02-21T12:41:57;14.57;;;5.25;;
43676;SDS011;29275;48.800;18.102;2024-02-21T12:45:06;10.10;;;4.50;;
43676;SDS011;29275;48.800;18.102;2024-02-21T12:48:10;14.93;;;5.22;;
43676;SDS011;29275;48.800;18.102;2024-02-21T12:51:13;11.85;;;5.40;;
43676;SDS011;29275;48.800;18.102;2024-02-21T12:54:16;11.73;;;5.47;;
43676;SDS011;29275;48.800;18.102;2024-02-21T12:57:22;10.25;;;4.75;;
43676;SDS011;29275;48.800;18.102;2024-02-21T13:00:29;10.60;;;4.40;;
43676;SDS011;29275;48.800;18.102;2024-02-21T13:03:33;13.85;;;4.38;;
43676;SDS011;29275;48.800;18.102;2024-02-21T13:06:45;11.73;;;5.15;;
43676;SDS011;29275;48.800;18.102;2024-02-21T13:09:49;11.68;;;4.43;;
43676;SDS011;29275;48.800;18.102;2024-02-21T13:13:04;14.88;;;6.55;;
43676;SDS011;29275;48.800;18.102;2024-02-21T13:23:31;15.00;;;4.45;;
43676;SDS011;29275;48.800;18.102;2024-02-21T13:26:57;10.70;;;4.47;;
43676;SDS011;29275;48.800;18.102;2024-02-21T13:33:56;11.27;;;4.32;;
43676;SDS011;29275;48.800;18.102;2024-02-21T13:37:12;14.18;;;4.63;;
43676;SDS011;29275;48.800;18.102;2024-02-21T13:40:27;16.92;;;7.20;;
43676;SDS011;29275;48.800;18.102;2024-02-21T13:43:30;12.85;;;4.50;;
43676;SDS011;29275;48.800;18.102;2024-02-21T13:46:42;16.40;;;5.30;;
43676;SDS011;29275;48.800;18.102;2024-02-21T13:49:46;13.88;;;4.85;;
43676;SDS011;29275;48.800;18.102;2024-02-21T13:56:13;6.88;;;4.00;;
43676;SDS011;29275;48.800;18.102;2024-02-21T13:59:16;14.25;;;4.55;;
43676;SDS011;29275;48.800;18.102;2024-02-21T14:02:20;14.05;;;4.95;;
43676;SDS011;29275;48.800;18.102;2024-02-21T14:05:23;11.20;;;5.40;;
43676;SDS011;29275;48.800;18.102;2024-02-21T14:08:29;17.88;;;7.60;;
43676;SDS011;29275;48.800;18.102;2024-02-21T14:11:32;11.57;;;5.07;;
43676;SDS011;29275;48.800;18.102;2024-02-21T14:14:45;13.73;;;5.13;;
43676;SDS011;29275;48.800;18.102;2024-02-21T14:17:57;12.05;;;5.03;;
43676;SDS011;29275;48.800;18.102;2024-02-21T14:21:11;12.13;;;6.78;;
43676;SDS011;29275;48.800;18.102;2024-02-21T14:24:13;12.85;;;6.60;;
43676;SDS011;29275;48.800;18.102;2024-02-21T14:27:16;9.90;;;5.10;;
43676;SDS011;29275;48.800;18.102;2024-02-21T14:30:19;16.30;;;7.15;;
43676;SDS011;29275;48.800;18.102;2024-02-21T14:33:22;12.13;;;6.22;;
43676;SDS011;29275;48.800;18.102;2024-02-21T14:36:26;17.55;;;7.93;;
43676;SDS011;29275;48.800;18.102;2024-02-21T14:39:29;13.00;;;5.70;;
43676;SDS011;29275;48.800;18.102;2024-02-21T14:42:32;12.38;;;4.55;;
43676;SDS011;29275;48.800;18.102;2024-02-21T14:45:36;10.77;;;5.78;;
43676;SDS011;29275;48.800;18.102;2024-02-21T14:48:43;10.73;;;4.47;;
43676;SDS011;29275;48.800;18.102;2024-02-21T14:51:48;8.88;;;4.25;;
43676;SDS011;29275;48.800;18.102;2024-02-21T14:54:51;9.40;;;4.85;;
43676;SDS011;29275;48.800;18.102;2024-02-21T14:57:55;12.52;;;5.95;;
43676;SDS011;29275;48.800;18.102;2024-02-21T15:00:58;14.50;;;6.93;;
43676;SDS011;29275;48.800;18.102;2024-02-21T15:04:01;18.67;;;8.35;;
43676;SDS011;29275;48.800;18.102;2024-02-21T15:07:05;25.35;;;12.52;;
43676;SDS011;29275;48.800;18.102;2024-02-21T15:10:08;17.15;;;7.63;;
43676;SDS011;29275;48.800;18.102;2024-02-21T15:13:11;14.98;;;9.65;;
43676;SDS011;29275;48.800;18.102;2024-02-21T15:16:14;15.80;;;8.25;;
43676;SDS011;29275;48.800;18.102;2024-02-21T15:19:20;38.53;;;24.03;;
43676;SDS011;29275;48.800;18.102;2024-02-21T15:22:25;27.17;;;16.02;;
43676;SDS011;29275;48.800;18.102;2024-02-21T15:25:31;24.90;;;12.60;;
43676;SDS011;29275;48.800;18.102;2024-02-21T15:28:34;19.63;;;10.02;;
43676;SDS011;29275;48.800;18.102;2024-02-21T15:31:37;13.35;;;8.38;;
43676;SDS011;29275;48.800;18.102;2024-02-21T15:34:40;17.33;;;8.88;;
43676;SDS011;29275;48.800;18.102;2024-02-21T15:37:44;14.55;;;7.40;;
43676;SDS011;29275;48.800;18.102;2024-02-21T15:40:48;25.90;;;13.48;;
43676;SDS011;29275;48.800;18.102;2024-02-21T15:43:53;17.98;;;9.90;;
43676;SDS011;29275;48.800;18.102;2024-02-21T15:46:59;17.55;;;8.93;;
43676;SDS011;29275;48.800;18.102;2024-02-21T15:50:02;19.50;;;10.65;;
43676;SDS011;29275;48.800;18.102;2024-02-21T15:53:07;19.08;;;8.32;;
43676;SDS011;29275;48.800;18.102;2024-02-21T15:56:10;12.00;;;7.13;;
43676;SDS011;29275;48.800;18.102;2024-02-21T15:59:15;13.00;;;7.07;;
43676;SDS011;29275;48.800;18.102;2024-02-21T16:02:18;11.18;;;7.30;;
43676;SDS011;29275;48.800;18.102;2024-02-21T16:05:21;13.02;;;7.95;;
43676;SDS011;29275;48.800;18.102;2024-02-21T16:08:24;115.57;;;56.53;;
43676;SDS011;29275;48.800;18.102;2024-02-21T16:11:28;195.48;;;101.32;;
43676;SDS011;29275;48.800;18.102;2024-02-21T16:14:31;83.20;;;47.05;;
43676;SDS011;29275;48.800;18.102;2024-02-21T16:17:34;98.82;;;49.03;;
43676;SDS011;29275;48.800;18.102;2024-02-21T16:20:39;59.40;;;32.42;;
43676;SDS011;29275;48.800;18.102;2024-02-21T16:23:43;427.88;;;212.75;;
43676;SDS011;29275;48.800;18.102;2024-02-21T16:26:47;107.63;;;59.75;;
43676;SDS011;29275;48.800;18.102;2024-02-21T16:29:52;587.60;;;324.70;;
43676;SDS011;29275;48.800;18.102;2024-02-21T16:32:56;452.13;;;244.32;;
43676;SDS011;29275;48.800;18.102;2024-02-21T16:35:59;383.35;;;194.00;;
43676;SDS011;29275;48.800;18.102;2024-02-21T16:39:02;246.32;;;128.45;;
43676;SDS011;29275;48.800;18.102;2024-02-21T16:42:06;155.27;;;84.65;;
43676;SDS011;29275;48.800;18.102;2024-02-21T16:45:09;113.07;;;58.90;;
43676;SDS011;29275;48.800;18.102;2024-02-21T16:48:15;51.87;;;29.90;;
43676;SDS011;29275;48.800;18.102;2024-02-21T16:51:19;101.20;;;52.95;;
43676;SDS011;29275;48.800;18.102;2024-02-21T16:54:24;55.75;;;30.13;;
43676;SDS011;29275;48.800;18.102;2024-02-21T16:57:28;56.50;;;31.13;;
43676;SDS011;29275;48.800;18.102;2024-02-21T17:00:34;39.55;;;22.08;;
43676;SDS011;29275;48.800;18.102;2024-02-21T17:03:42;49.58;;;26.48;;
43676;SDS011;29275;48.800;18.102;2024-02-21T17:06:46;35.15;;;21.75;;
43676;SDS011;29275;48.800;18.102;2024-02-21T17:09:49;35.17;;;22.95;;
43676;SDS011;29275;48.800;18.102;2024-02-21T17:12:52;40.13;;;24.67;;
43676;SDS011;29275;48.800;18.102;2024-02-21T17:15:55;35.53;;;20.70;;
43676;SDS011;29275;48.800;18.102;2024-02-21T17:18:58;32.42;;;19.00;;
43676;SDS011;29275;48.800;18.102;2024-02-21T17:22:01;22.60;;;12.95;;
43676;SDS011;29275;48.800;18.102;2024-02-21T17:25:04;13.98;;;8.25;;
43676;SDS011;29275;48.800;18.102;2024-02-21T17:28:20;12.32;;;6.35;;
43676;SDS011;29275;48.800;18.102;2024-02-21T17:31:23;10.77;;;3.85;;
43676;SDS011;29275;48.800;18.102;2024-02-21T17:34:28;13.05;;;7.13;;
43676;SDS011;29275;48.800;18.102;2024-02-21T17:38:02;8.35;;;3.58;;
43676;SDS011;29275;48.800;18.102;2024-02-21T17:41:10;8.02;;;3.20;;
43676;SDS011;29275;48.800;18.102;2024-02-21T17:44:15;5.85;;;2.35;;
43676;SDS011;29275;48.800;18.102;2024-02-21T17:47:18;5.70;;;2.63;;
43676;SDS011;29275;48.800;18.102;2024-02-21T17:50:27;7.55;;;2.88;;
43676;SDS011;29275;48.800;18.102;2024-02-21T17:53:52;6.82;;;1.90;;
43676;SDS011;29275;48.800;18.102;2024-02-21T17:56:55;9.32;;;4.43;;
43676;SDS011;29275;48.800;18.102;2024-02-21T18:00:04;7.65;;;4.10;;
43676;SDS011;29275;48.800;18.102;2024-02-21T18:03:15;4.57;;;1.98;;
43676;SDS011;29275;48.800;18.102;2024-02-21T18:06:20;5.18;;;1.90;;
43676;SDS011;29275;48.800;18.102;2024-02-21T18:09:24;6.80;;;3.47;;
43676;SDS011;29275;48.800;18.102;2024-02-21T18:12:27;6.20;;;3.05;;
43676;SDS011;29275;48.800;18.102;2024-02-21T18:15:30;6.72;;;2.65;;
43676;SDS011;29275;48.800;18.102;2024-02-21T18:18:33;16.42;;;6.50;;
43676;SDS011;29275;48.800;18.102;2024-02-21T18:21:37;9.00;;;4.05;;